Details From CYVP - Kuujjuaq
To CYPX - Puvirnituq
Flight Number -
Tags Standard
Created
Modified
Stats Distance 299 nm / 553 km
Max Altitude 35,000 ft / 10,668 m
Waypoints 4
Social Downloads 0
Likes 0
Share VATSIM

Download

Looking for another format? Having issues loading an existing format? Contact us
Advertisement - Login to hide

Notes

None

Route

CYVP YTQ YPX CYPX

ID Type Via Altitude Latitude Longitude Leg Dist Tot Dist Heading (true) Name
O CYVP APT - 129 ft / 39 m 58.09042˚ -68.42736˚ - 0 nm - -
YTQ NDB - 35,000 ft / 10,668 m 58.67023˚ -69.94749˚ 59 nm 59 nm 307° / 305° TASIUJAQ NDB
YPX NDB - 74 ft / 23 m 60.04389˚ -77.27944˚ 238 nm 298 nm 293° / 287° -
O CYPX APT - 74 ft / 23 m 60.05042˚ -77.28694˚ 0 nm 298 nm 330° / 330° PUVIRNITUQ

Altitude Profile

Advertisement - Login to hide

Weather


0- 5 10 15 20 25 30 35+ Temperature / ° C

Clouds and Precipitation
Forecast for 2017-12-14 00:00 UTC. Updated 2 hours ago

Ground ~20,000 ft ~40,000 ft Winds

CYVP

Details ICAO CYVP (YVP)
Name KUUJJUAQ
Region Canada
Timezone America/Montreal (UTC-5.0)
Stats Elevation 129 ft / 39 m (AMSL)
Location 58.096945° -68.423333°
Runways 2
Magnetic Variation 22.674° W

METAR

CYVP 140024Z 04010G16KT 15SM -SN SCT033 OVC065 M14/M17 A2982 RMK SC3SC5 SLP104

Decode

TAF

TAF CYVP 132339Z 1400/1412 03012KT P6SM IC OVC110 TEMPO 1400/1401 3SM -SN IC BKN020 OVC110 FM140100 03010G20KT 6SM -SN OVC060 TEMPO 1401/1403 3SM -SN BKN020 OVC060 FM140300 03015G28KT 2SM -SN BLSN OVC020 TEMPO 1403/1406 6SM -SN OVC030 FM140600 03020G35KT 3/4SM -SN BLSN VV010 FM141000 03022G42KT 1/4SM +SN BLSN VV008 RMK NXT FCST BY 140600Z

Decode

Departure Runways

ID Width Length Bearing (true) Bearing (mag) Surface Threshold Offset Overrun Length
07 150 ft / 46 m 6,002 ft / 1,829 m 43.43° 66.10° Asphalt 0 ft / 0 m 0 ft / 0 m
13 150 ft / 46 m 5,000 ft / 1,524 m 102.88° 125.55° Gravel 0 ft / 0 m 0 ft / 0 m
25 150 ft / 46 m 6,002 ft / 1,829 m 223.45° 246.12° Asphalt 0 ft / 0 m 0 ft / 0 m
31 150 ft / 46 m 5,000 ft / 1,524 m 282.90° 305.57° Gravel 0 ft / 0 m 0 ft / 0 m

CYPX

Details ICAO CYPX (YPX)
Name PUVIRNITUQ
Region Canada
Timezone America/Montreal (UTC-5.0)
Stats Elevation 74 ft / 23 m (AMSL)
Location 60.050418° -77.286945°
Runways 1
Magnetic Variation 19.950° W

METAR

CYPX 140035Z AUTO 09014KT 9SM OVC035 M20/M23 A2995 RMK SLP148

Decode

TAF

TAF CYPX 132339Z 1400/1412 14015KT P6SM OVC040 TEMPO 1400/1403 5SM -SN OVC020 FM140300 09012KT P6SM SCT020 BECMG 1408/1410 02015KT RMK FCST BASED ON AUTO OBS. NXT FCST BY 140600Z

Decode

Destination Runways

ID Width Length Bearing (true) Bearing (mag) Surface Threshold Offset Overrun Length
01 100 ft / 30 m 4,971 ft / 1,515 m 343.44° 3.39° Gravel 0 ft / 0 m 0 ft / 0 m
19 100 ft / 30 m 4,971 ft / 1,515 m 163.44° 183.39° Gravel 0 ft / 0 m 0 ft / 0 m